Latest Coastal Weather Observations for Red Rocks Point

IDW60701

Issued at 10:23 am WST Saturday 5 December 2020 (issued every 10 minutes, with the page automatically refreshed every 10 minutes)

About coastal observations | Map of coastal stations | Coastal observations for WA | Marine services | Other Formats
Station Details ID: 011053 Name: RED ROCKS POINT Lat: -32.20 Lon: 127.53 Height: 3.1 m
Data from the previous 72 hours. | See also: Recent months at Red Rocks Point
Date/Time
WST
Wind Sea
Height
m
Swell Vis
km
Cloud Weather Temp
°C
Press
MSL
hPa
Rain since
9am
mm
Dir  Spd
kts
Gust
kts
Height
m
Period
s
Dir
05/10:00am SW 15 23 - - - - - - - 22.9 1015.0 -
05/09:30am SW 17 25 - - - - - - - 22.4 1014.9 -
05/09:00am WSW 18 27 - - - - - - - 21.9 1014.7 -
05/08:35am WSW 18 29 - - - - - - - 21.4 1014.6 -
05/08:30am WSW 19 26 - - - - - - - 21.4 1014.4 -
05/08:00am SW 17 27 - - - - - - - 19.1 1014.4 -
05/07:35am SW 18 28 - - - - - - - 19.9 1014.0 -
05/07:30am SW 19 25 - - - - - - - 20.0 1013.9 -
05/07:13am WSW 17 29 - - - - - - - 21.1 1013.5 -
05/07:00am WSW 15 22 - - - - - - - 20.5 1013.2 -
05/06:30am SW 17 25 - - - - - - - 19.2 1013.1 -
05/06:00am WSW 18 31 - - - - - - - 18.7 1012.7 -
05/05:30am WSW 16 29 - - - - - - - 18.0 1012.2 -
05/05:00am WSW 16 27 - - - - - - - 17.1 1011.8 -
05/04:55am WSW 15 26 - - - - - - - 17.1 1011.8 -
05/04:30am WSW 14 23 - - - - - - - 16.7 1011.8 -
05/04:00am WSW 17 24 - - - - - - - 16.8 1011.4 -
05/03:48am WSW 17 30 - - - - - - - 16.6 1011.3 -
05/03:30am WSW 15 24 - - - - - - - 15.9 1011.1 -
05/03:21am W 10 22 - - - - - - - 15.0 1011.0 -
05/03:00am WNW 8 12 - - - - - - - 13.7 1010.6 -
05/02:30am WNW 8 11 - - - - - - - 13.3 1010.6 -
05/02:00am WNW 8 11 - - - - - - - 13.0 1010.6 -
05/01:30am WNW 8 11 - - - - - - - 12.9 1010.7 -
05/01:00am WNW 8 11 - - - - - - - 13.0 1010.8 -
05/12:30am NW 8 10 - - - - - - - 12.7 1010.8 -
05/12:00am NW 8 10 - - - - - - - 13.2 1010.6 -
 
Date/Time
WST
Wind Sea
Height
m
Swell Vis
km
Cloud Weather Temp
°C
Press
MSL
hPa
Rain since
9am
mm
Dir  Spd
kts
Gust
kts
Height
m
Period
s
Dir
04/11:30pm NW 8 9 - - - - - - - 13.5 1010.4 -
04/11:00pm WSW 5 7 - - - - - - - 14.7 1010.5 -
04/10:30pm SSW 5 7 - - - - - - - 15.6 1010.7 -
04/10:00pm S 11 13 - - - - - - - 16.7 1010.6 -
04/09:30pm SSW 14 17 - - - - - - - 16.9 1010.4 -
04/09:00pm SSW 16 19 - - - - - - - 17.0 1010.3 -
04/08:30pm SSW 14 19 - - - - - - - 17.0 1010.1 -
04/08:00pm SSW 12 18 - - - - - - - 17.0 1010.1 -
04/07:30pm SSW 14 19 - - - - - - - 17.2 1010.2 -
04/07:00pm SW 14 23 - - - - - - - 17.5 1009.8 -
04/06:30pm SSW 15 21 - - - - - - - 17.8 1009.1 -
04/06:00pm SW 17 23 - - - - - - - 18.5 1008.3 -
04/05:30pm SW 13 19 - - - - - - - 18.6 1008.6 -
04/05:00pm SW 13 20 - - - - - - - 19.9 1008.2 -
04/04:30pm SW 18 26 - - - - - - - 19.6 1006.9 -
04/04:03pm SW 21 31 - - - - - - - 20.0 1005.4 -
04/04:00pm SW 22 31 - - - - - - - 20.1 1005.3 -
04/03:30pm SW 18 28 - - - - - - - 20.4 1004.5 -
04/03:00pm SW 19 31 - - - - - - - 18.7 1004.2 -
04/02:39pm SW 17 29 - - - - - - - 18.7 1003.9 -
04/02:30pm SW 18 26 - - - - - - - 19.4 1004.8 -
04/02:00pm SW 21 31 - - - - - - - 19.4 1002.7 -
04/01:30pm WSW 20 32 - - - - - - - 24.1 1001.7 -
04/01:20pm SW 22 35 - - - - - - - 27.0 1000.8 -
04/01:10pm WSW 18 32 - - - - - - - 32.2 999.6 -
04/01:06pm WNW 17 32 - - - - - - - 38.0 1000.3 -
04/01:00pm NW 17 29 - - - - - - - 41.6 998.7 -
04/12:32pm NW 20 37 - - - - - - - 43.8 999.0 -
04/12:30pm NW 19 28 - - - - - - - 44.1 999.1 -
04/12:00pm NNW 22 32 - - - - - - - 42.4 1000.1 -
04/11:30am NNW 19 33 - - - - - - - 42.1 1001.1 -
04/11:00am NNW 22 35 - - - - - - - 43.6 1001.7 -
04/10:30am NNW 22 33 - - - - - - - 42.4 1002.9 -
04/10:00am N 19 31 - - - - - - - 41.6 1003.6 -
04/09:30am N 19 32 - - - - - - - 39.9 1004.4 -
04/09:02am N 18 32 - - - - - - - 38.7 1004.4 -
04/09:00am N 17 25 - - - - - - - 39.3 1004.5 -
04/08:30am N 18 28 - - - - - - - 36.2 1005.1 -
04/08:00am N 15 27 - - - - - - - 35.5 1005.7 -
04/07:33am NNE 18 28 - - - - - - - 33.6 1006.1 -
04/07:30am NNE 19 28 - - - - - - - 32.7 1006.1 -
04/07:01am NNE 15 25 - - - - - - - 29.9 1007.0 -
04/07:00am NNE 16 25 - - - - - - - 29.5 1007.0 -
04/06:30am NNE 15 27 - - - - - - - 26.7 1007.6 -
04/06:00am NNE 14 20 - - - - - - - 24.5 1008.0 -
04/05:30am NNE 15 20 - - - - - - - 23.6 1008.0 -
04/05:00am NNE 14 21 - - - - - - - 22.9 1008.5 -
04/04:30am NNE 14 22 - - - - - - - 21.6 1008.6 -
04/04:00am NNE 12 17 - - - - - - - 20.0 1008.9 -
04/03:30am NNE 12 17 - - - - - - - 19.5 1009.1 -
04/03:00am NE 13 19 - - - - - - - 19.0 1009.2 -
04/02:30am NE 12 18 - - - - - - - 18.9 1009.5 -
04/02:00am NE 12 19 - - - - - - - 18.8 1009.8 -
04/01:30am NE 13 17 - - - - - - - 19.0 1010.1 -
04/01:00am NE 13 18 - - - - - - - 18.8 1010.4 -
04/12:30am NE 12 16 - - - - - - - 18.8 1011.0 -
04/12:00am NE 12 16 - - - - - - - 18.7 1011.2 -
 
Date/Time
WST
Wind Sea
Height
m
Swell Vis
km
Cloud Weather Temp
°C
Press
MSL
hPa
Rain since
9am
mm
Dir  Spd
kts
Gust
kts
Height
m
Period
s
Dir
03/11:30pm NE 12 15 - - - - - - - 19.0 1011.9 -
03/11:00pm NE 16 22 - - - - - - - 19.6 1012.5 -
03/10:30pm NE 15 18 - - - - - - - 19.7 1013.0 -
03/10:00pm NE 13 16 - - - - - - - 19.7 1014.1 -
03/09:30pm NE 13 18 - - - - - - - 20.0 1014.3 -
03/09:00pm ENE 13 17 - - - - - - - 20.1 1014.5 -
03/08:30pm ENE 14 18 - - - - - - - 20.4 1014.7 -
03/08:00pm ENE 20 25 - - - - - - - 20.8 1014.7 -
03/07:30pm ENE 19 23 - - - - - - - 20.8 1014.7 -
03/07:00pm ENE 19 23 - - - - - - - 20.8 1014.6 -
03/06:30pm ENE 19 23 - - - - - - - 20.9 1014.4 -
03/06:00pm ENE 18 21 - - - - - - - 21.0 1014.5 -
03/05:30pm ENE 18 21 - - - - - - - 21.5 1014.2 -
03/05:00pm E 17 20 - - - - - - - 22.0 1014.1 -
03/04:30pm ENE 17 19 - - - - - - - 22.6 1014.1 -
03/04:00pm E 16 19 - - - - - - - 23.1 1014.1 -
03/03:30pm E 16 18 - - - - - - - 23.1 1014.3 -
03/03:00pm E 15 17 - - - - - - - 23.7 1014.6 -
03/02:30pm E 14 16 - - - - - - - 24.1 1014.9 -
03/02:00pm E 15 17 - - - - - - - 24.7 1015.2 -
03/01:30pm E 15 18 - - - - - - - 25.4 1015.3 -
03/01:00pm E 12 16 - - - - - - - 25.5 1015.9 -
03/12:30pm ENE 13 16 - - - - - - - 25.4 1016.2 -
03/12:00pm E 12 15 - - - - - - - 24.8 1016.5 -
03/11:30am E 13 15 - - - - - - - 24.9 1016.8 -
03/11:00am E 15 17 - - - - - - - 24.4 1017.1 -
03/10:30am E 12 15 - - - - - - - 25.2 1017.4 -
03/10:00am E 11 15 - - - - - - - 25.3 1017.7 -
03/09:30am ESE 11 14 - - - - - - - 25.1 1017.8 -
03/09:00am ESE 11 13 - - - - - - - 25.9 1018.0 -
03/08:30am ENE 9 14 - - - - - - - 26.9 1018.1 -
03/08:00am NE 8 14 - - - - - - - 28.0 1018.3 -
03/07:30am NE 12 16 - - - - - - - 25.3 1018.4 -
03/07:00am NE 8 13 - - - - - - - 23.5 1018.8 -
03/06:30am NNE 11 17 - - - - - - - 20.2 1018.9 -
03/06:00am NE 11 14 - - - - - - - 18.1 1019.0 -
03/05:30am NNE 9 13 - - - - - - - 15.8 1018.9 -
03/05:00am NE 10 13 - - - - - - - 13.9 1018.7 -
03/04:30am NNE 9 12 - - - - - - - 12.9 1018.7 -
03/04:00am NNE 11 15 - - - - - - - 13.0 1018.6 -
03/03:30am NNE 11 16 - - - - - - - 13.1 1018.6 -
03/03:00am NE 10 14 - - - - - - - 13.3 1018.6 -
03/02:30am NE 9 13 - - - - - - - 12.8 1018.7 -
03/02:00am NE 10 13 - - - - - - - 12.6 1018.8 -
03/01:30am NE 9 11 - - - - - - - 12.3 1019.2 -
03/01:00am NNE 8 11 - - - - - - - 12.6 1019.5 -
03/12:30am NE 8 10 - - - - - - - 13.0 1019.6 -
03/12:00am NE 7 10 - - - - - - - 13.1 1019.8 -
 
Date/Time
WST
Wind Sea
Height
m
Swell Vis
km
Cloud Weather Temp
°C
Press
MSL
hPa
Rain since
9am
mm
Dir  Spd
kts
Gust
kts
Height
m
Period
s
Dir
02/11:30pm NE 7 9 - - - - - - - 13.5 1020.2 -
02/11:00pm NE 8 10 - - - - - - - 14.3 1020.5 -
02/10:30pm NE 8 10 - - - - - - - 14.9 1020.9 -
02/10:00pm NE 11 19 - - - - - - - 16.5 1021.2 -
02/09:30pm E 17 19 - - - - - - - 17.7 1021.5 -
02/09:00pm E 17 20 - - - - - - - 17.8 1021.6 -
02/08:30pm E 17 21 - - - - - - - 17.8 1021.5 -
02/08:00pm E 18 21 - - - - - - - 17.8 1021.3 -
02/07:30pm E 18 21 - - - - - - - 18.1 1021.2 -
02/07:00pm E 19 23 - - - - - - - 17.9 1020.9 -
02/06:30pm E 19 23 - - - - - - - 18.0 1020.8 -
02/06:00pm E 19 22 - - - - - - - 18.1 1020.9 -
02/05:30pm E 19 22 - - - - - - - 18.2 1020.7 -
02/05:00pm E 19 22 - - - - - - - 18.7 1020.6 -
02/04:30pm E 19 22 - - - - - - - 19.1 1020.3 -
02/04:00pm E 19 22 - - - - - - - 19.4 1020.4 -
02/03:30pm E 18 21 - - - - - - - 19.7 1020.6 -
02/03:00pm E 18 21 - - - - - - - 20.3 1020.7 -
02/02:30pm E 18 21 - - - - - - - 21.0 1021.0 -
02/02:00pm E 19 22 - - - - - - - 20.7 1021.5 -
02/01:30pm E 19 21 - - - - - - - 21.2 1021.9 -
02/01:00pm E 19 21 - - - - - - - 21.3 1022.1 -
02/12:30pm E 18 21 - - - - - - - 21.7 1022.4 -
02/12:00pm E 16 18 - - - - - - - 21.9 1022.9 -
02/11:30am E 15 18 - - - - - - - 22.1 1023.2 -
02/11:00am E 14 19 - - - - - - - 22.1 1023.6 -
02/10:30am E 14 17 - - - - - - - 22.1 1023.9 -

Other formats

Comma delimited format used in spreadsheet applications
http://www.bom.gov.au/fwo/IDW60701/IDW60701.94644.axf

JavaScript Object Notation format (JSON) in row-major order
http://www.bom.gov.au/fwo/IDW60701/IDW60701.94644.json

Data quality

Most of these data are generated automatically and are frequently updated. Quality checks on data are not normally performed. It is possible for incorrect values to appear. Refer to information at About Latest Weather Observations and please check the disclaimer before using these data.